createdAt,value
2022-07-30T00:00:25.141Z,20.09
2022-07-30T00:02:56.923Z,20.06
2022-07-30T00:05:28.336Z,20.04
2022-07-30T00:08:00.066Z,20.03
2022-07-30T00:10:31.500Z,20.02
2022-07-30T00:13:02.764Z,20.00
2022-07-30T00:15:34.381Z,20.00
2022-07-30T00:18:05.935Z,19.97
2022-07-30T00:20:40.344Z,19.95
2022-07-30T00:23:14.935Z,19.96
2022-07-30T00:25:46.170Z,19.99
2022-07-30T00:28:17.422Z,20.01
2022-07-30T00:30:48.779Z,20.02
2022-07-30T00:33:26.829Z,20.03
2022-07-30T00:35:58.225Z,20.04
2022-07-30T00:38:29.589Z,20.04
2022-07-30T00:41:00.973Z,20.04
2022-07-30T00:43:32.319Z,20.04
2022-07-30T00:46:03.641Z,20.03
2022-07-30T00:48:36.596Z,20.00
2022-07-30T00:51:07.985Z,20.00
2022-07-30T00:53:39.567Z,19.99
2022-07-30T00:56:11.240Z,19.98
2022-07-30T00:58:44.066Z,19.96
2022-07-30T01:01:15.351Z,19.94
2022-07-30T01:03:46.657Z,19.92
2022-07-30T01:06:17.993Z,19.92
2022-07-30T01:08:49.198Z,19.89
2022-07-30T01:11:20.702Z,19.87
2022-07-30T01:13:52.487Z,19.85
2022-07-30T01:16:24.449Z,19.83
2022-07-30T01:19:15.037Z,19.84
2022-07-30T01:21:51.392Z,19.83
2022-07-30T01:24:32.384Z,19.84
2022-07-30T01:27:04.275Z,19.82
2022-07-30T01:29:39.901Z,19.80
2022-07-30T01:32:12.428Z,19.79
2022-07-30T01:34:46.774Z,19.78
2022-07-30T01:37:20.492Z,19.77
2022-07-30T01:39:53.305Z,19.76
2022-07-30T01:42:28.183Z,19.76
2022-07-30T01:45:00.962Z,19.78
2022-07-30T01:47:34.592Z,19.77
2022-07-30T01:50:13.791Z,19.76
2022-07-30T01:52:49.074Z,19.75
2022-07-30T01:55:22.960Z,19.74
2022-07-30T01:57:55.378Z,19.72
2022-07-30T02:00:28.057Z,19.70
2022-07-30T02:02:59.689Z,19.68
2022-07-30T02:05:34.516Z,19.67
2022-07-30T02:08:14.279Z,19.66
2022-07-30T02:10:50.606Z,19.63
2022-07-30T02:13:28.016Z,19.60
2022-07-30T02:16:05.854Z,19.59
2022-07-30T02:18:45.387Z,19.58
2022-07-30T02:21:22.101Z,19.57
2022-07-30T02:23:56.727Z,19.53
2022-07-30T02:26:30.968Z,19.49
2022-07-30T02:29:07.289Z,19.45
2022-07-30T02:31:42.809Z,19.39
2022-07-30T02:34:16.993Z,19.34
2022-07-30T02:36:49.126Z,19.29
2022-07-30T02:39:22.559Z,19.28
2022-07-30T02:41:57.914Z,19.27
2022-07-30T02:44:32.467Z,19.27
2022-07-30T02:47:04.976Z,19.26
2022-07-30T02:49:56.355Z,19.24
2022-07-30T02:52:30.179Z,19.25
2022-07-30T02:55:03.781Z,19.24
2022-07-30T02:57:36.249Z,19.24
2022-07-30T03:00:17.024Z,19.25
2022-07-30T03:02:49.099Z,19.26
2022-07-30T03:05:21.469Z,19.27
2022-07-30T03:07:53.595Z,19.27
2022-07-30T03:10:26.322Z,19.29
2022-07-30T03:12:59.875Z,19.30
2022-07-30T03:15:34.804Z,19.33
2022-07-30T03:18:14.828Z,19.35
2022-07-30T03:20:46.153Z,19.37
2022-07-30T03:23:22.676Z,19.40
2022-07-30T03:25:58.338Z,19.40
2022-07-30T03:28:32.762Z,19.41
2022-07-30T03:31:05.498Z,19.41
2022-07-30T03:33:39.226Z,19.39
2022-07-30T03:36:13.673Z,19.39
2022-07-30T03:38:45.659Z,19.40
2022-07-30T03:41:18.743Z,19.38
2022-07-30T03:43:51.256Z,19.38
2022-07-30T03:46:24.055Z,19.37
2022-07-30T03:48:56.828Z,19.35
2022-07-30T03:51:32.921Z,19.32
2022-07-30T03:54:13.360Z,19.30
2022-07-30T03:56:45.703Z,19.29
2022-07-30T03:59:25.406Z,19.29
2022-07-30T04:02:05.973Z,19.28
2022-07-30T04:04:58.806Z,19.27
2022-07-30T04:07:30.192Z,19.26
2022-07-30T04:10:01.463Z,19.22
2022-07-30T04:12:51.463Z,19.19
2022-07-30T04:16:37.361Z,19.16
2022-07-30T04:18:17.136Z,19.14
2022-07-30T04:20:50.866Z,19.15
2022-07-30T04:23:23.134Z,19.17
2022-07-30T04:25:55.315Z,19.17
2022-07-30T04:28:28.239Z,19.17
2022-07-30T04:30:59.986Z,19.15
2022-07-30T04:33:31.561Z,19.15
2022-07-30T04:36:18.964Z,19.16
2022-07-30T04:38:50.794Z,19.17
2022-07-30T04:41:22.094Z,19.19
2022-07-30T04:44:13.567Z,19.19
2022-07-30T04:46:52.098Z,19.19
2022-07-30T04:49:25.384Z,19.19
2022-07-30T04:51:58.318Z,19.22
2022-07-30T04:54:32.586Z,19.23
2022-07-30T04:57:06.144Z,19.21
2022-07-30T04:59:37.759Z,19.21
2022-07-30T05:02:10.490Z,19.22
2022-07-30T05:04:44.138Z,19.22
2022-07-30T05:07:18.148Z,19.23
2022-07-30T05:09:53.660Z,19.23
2022-07-30T05:12:37.661Z,19.25
2022-07-30T05:15:11.199Z,19.28
2022-07-30T05:17:42.769Z,19.31
2022-07-30T05:20:14.999Z,19.34
2022-07-30T05:23:07.596Z,19.36
2022-07-30T05:25:39.272Z,19.38
2022-07-30T05:28:22.428Z,19.41
2022-07-30T05:30:54.238Z,19.40
2022-07-30T05:33:40.828Z,19.38
2022-07-30T05:36:15.319Z,19.39
2022-07-30T05:38:46.623Z,19.41
2022-07-30T05:41:31.734Z,19.40
2022-07-30T05:44:04.541Z,19.40
2022-07-30T05:46:36.014Z,19.41
2022-07-30T05:49:07.584Z,19.41
2022-07-30T05:51:39.248Z,19.40
2022-07-30T05:54:10.793Z,19.41
2022-07-30T05:57:00.999Z,19.43
2022-07-30T05:59:50.555Z,19.46
2022-07-30T06:02:31.988Z,19.49
2022-07-30T06:05:15.716Z,19.53
2022-07-30T06:07:47.579Z,19.56
2022-07-30T06:10:19.294Z,19.59
2022-07-30T06:12:51.738Z,19.62
2022-07-30T06:15:26.081Z,19.65
2022-07-30T06:18:01.967Z,19.68
2022-07-30T06:21:03.120Z,19.71
2022-07-30T06:23:44.318Z,19.74
2022-07-30T06:26:34.182Z,19.78
2022-07-30T06:29:06.446Z,19.81
2022-07-30T06:31:40.233Z,19.86
2022-07-30T06:34:12.217Z,19.92
2022-07-30T06:36:46.229Z,20.00
2022-07-30T06:39:58.117Z,20.09
2022-07-30T06:42:23.773Z,20.14
2022-07-30T06:45:14.706Z,20.16
2022-07-30T06:48:09.463Z,20.22
2022-07-30T06:50:41.835Z,20.29
2022-07-30T06:53:13.239Z,20.35
2022-07-30T06:56:07.906Z,20.40
2022-07-30T06:58:49.500Z,20.46
2022-07-30T07:01:30.056Z,20.49
2022-07-30T07:04:02.219Z,20.53
2022-07-30T07:06:34.214Z,20.54
2022-07-30T07:09:07.103Z,20.54
2022-07-30T07:11:53.890Z,20.56
2022-07-30T07:14:24.006Z,20.58
2022-07-30T07:16:56.190Z,20.62
2022-07-30T07:20:00.315Z,20.64
2022-07-30T07:22:37.344Z,20.67
2022-07-30T07:25:11.541Z,20.71
2022-07-30T07:27:43.112Z,20.77
2022-07-30T07:30:17.308Z,20.81
2022-07-30T07:32:48.882Z,20.86
2022-07-30T07:35:20.478Z,20.90
2022-07-30T07:37:54.827Z,20.92
2022-07-30T07:40:29.646Z,20.95
2022-07-30T07:43:02.330Z,21.02
2022-07-30T07:45:34.878Z,21.08
2022-07-30T07:48:10.938Z,21.16
2022-07-30T07:50:59.657Z,21.26
2022-07-30T07:53:33.012Z,21.32
2022-07-30T07:56:08.578Z,21.39
2022-07-30T07:58:41.496Z,21.46
2022-07-30T08:01:14.808Z,21.52
2022-07-30T08:04:10.400Z,21.60
2022-07-30T08:07:17.736Z,21.73
2022-07-30T08:09:55.848Z,21.87
2022-07-30T08:12:46.384Z,22.03
2022-07-30T08:15:53.337Z,22.20
2022-07-30T08:18:43.361Z,22.29
2022-07-30T08:21:23.713Z,22.33
2022-07-30T08:23:55.431Z,22.38
2022-07-30T08:26:27.678Z,22.49
2022-07-30T08:28:59.666Z,22.63
2022-07-30T08:31:32.341Z,22.72
2022-07-30T08:34:04.733Z,22.80
2022-07-30T08:36:36.577Z,22.94
2022-07-30T08:39:08.906Z,23.11
2022-07-30T08:41:42.365Z,23.23
2022-07-30T08:44:17.476Z,23.32
2022-07-30T08:46:50.192Z,23.37
2022-07-30T08:49:32.889Z,23.39
2022-07-30T08:52:09.063Z,23.39
2022-07-30T08:54:53.422Z,23.38
2022-07-30T08:57:26.152Z,23.40
2022-07-30T09:00:01.302Z,23.44
2022-07-30T09:02:35.668Z,23.48
2022-07-30T09:05:11.978Z,23.51
2022-07-30T09:07:44.269Z,23.54
2022-07-30T09:10:24.708Z,23.62
2022-07-30T09:12:56.730Z,23.71
2022-07-30T09:15:28.547Z,23.84
2022-07-30T09:18:03.225Z,23.99
2022-07-30T09:20:38.491Z,24.17
2022-07-30T09:23:12.912Z,24.39
2022-07-30T09:26:03.577Z,24.65
2022-07-30T09:28:54.494Z,24.84
2022-07-30T09:32:01.612Z,24.99
2022-07-30T09:34:56.829Z,25.11
2022-07-30T09:38:06.198Z,25.27
2022-07-30T09:40:57.685Z,25.37
2022-07-30T09:43:44.951Z,25.40
2022-07-30T09:46:23.998Z,25.34
2022-07-30T09:49:14.681Z,25.28
2022-07-30T09:54:53.141Z,25.01
2022-07-30T09:57:28.740Z,24.88
2022-07-30T10:00:24.375Z,24.76
2022-07-30T10:03:33.555Z,24.59
2022-07-30T10:06:41.924Z,24.46
2022-07-30T10:09:30.284Z,24.38
2022-07-30T10:12:04.252Z,24.34
2022-07-30T10:14:42.590Z,24.32
2022-07-30T10:17:18.424Z,24.31
2022-07-30T10:20:12.664Z,24.29
2022-07-30T10:23:08.306Z,24.23
2022-07-30T10:25:49.560Z,24.19
2022-07-30T10:28:46.133Z,24.13
2022-07-30T10:31:49.413Z,24.05
2022-07-30T10:34:10.789Z,23.96
2022-07-30T10:36:48.055Z,23.88
2022-07-30T10:39:26.939Z,23.84
2022-07-30T10:42:09.904Z,23.81
2022-07-30T10:45:17.589Z,23.78
2022-07-30T10:47:51.538Z,23.75
2022-07-30T10:50:26.964Z,23.73
2022-07-30T10:53:01.669Z,23.72
2022-07-30T10:55:38.832Z,23.70
2022-07-30T10:58:22.848Z,23.68
2022-07-30T11:01:03.838Z,23.66
2022-07-30T11:03:41.060Z,23.63
2022-07-30T11:06:31.035Z,23.60
2022-07-30T11:09:03.615Z,23.57
2022-07-30T11:12:02.172Z,23.56
2022-07-30T11:15:06.538Z,23.51
2022-07-30T11:18:12.492Z,23.44
2022-07-30T11:20:48.601Z,23.40
2022-07-30T11:23:40.017Z,23.36
2022-07-30T11:26:14.235Z,23.31
2022-07-30T11:28:49.806Z,23.28
2022-07-30T11:31:56.914Z,23.23
2022-07-30T11:35:34.387Z,23.14
2022-07-30T11:38:10.360Z,23.11
2022-07-30T11:41:13.275Z,23.10
2022-07-30T11:43:45.184Z,23.07
2022-07-30T11:46:29.014Z,23.04
2022-07-30T11:49:05.780Z,23.00
2022-07-30T11:51:44.967Z,22.96
2022-07-30T11:54:16.635Z,22.93
2022-07-30T11:57:03.696Z,22.91
2022-07-30T12:13:45.074Z,23.22
2022-07-30T12:16:51.301Z,23.16
2022-07-30T12:19:20.234Z,23.05
2022-07-30T12:21:53.664Z,22.92
2022-07-30T12:29:12.571Z,22.62
2022-07-30T12:32:07.797Z,22.55
2022-07-30T12:34:36.593Z,22.47
2022-07-30T12:37:11.187Z,22.40
2022-07-30T12:39:40.415Z,22.36
2022-07-30T12:42:19.414Z,22.32
2022-07-30T12:44:49.660Z,22.27
2022-07-30T12:47:23.341Z,22.22
2022-07-30T12:49:53.421Z,22.17
2022-07-30T12:52:28.488Z,22.11
2022-07-30T12:55:00.445Z,22.04
2022-07-30T12:58:42.353Z,21.98
2022-07-30T13:01:45.324Z,21.92
2022-07-30T13:04:17.160Z,21.89
2022-07-30T13:07:03.242Z,21.86
2022-07-30T13:09:32.460Z,21.86
2022-07-30T13:12:01.556Z,21.84
2022-07-30T13:14:30.712Z,21.83
2022-07-30T13:17:00.734Z,21.78
2022-07-30T13:19:30.232Z,21.73
2022-07-30T13:21:59.226Z,21.68
2022-07-30T13:24:27.720Z,21.65
2022-07-30T13:26:57.111Z,21.62
2022-07-30T13:29:25.761Z,21.59
2022-07-30T13:31:54.153Z,21.58
2022-07-30T13:34:22.854Z,21.56
2022-07-30T13:36:51.766Z,21.56
2022-07-30T13:39:20.443Z,21.53
2022-07-30T13:41:49.075Z,21.50
2022-07-30T13:44:18.204Z,21.50
2022-07-30T13:46:46.778Z,21.49
2022-07-30T13:49:16.632Z,21.46
2022-07-30T13:51:45.341Z,21.43
2022-07-30T13:54:14.031Z,21.38
2022-07-30T13:56:43.497Z,21.36
2022-07-30T13:59:12.477Z,21.37
2022-07-30T14:01:42.334Z,21.36
2022-07-30T14:04:12.927Z,21.37
2022-07-30T14:06:41.744Z,21.36
2022-07-30T14:09:10.441Z,21.35
2022-07-30T14:11:39.681Z,21.34
2022-07-30T14:14:09.726Z,21.35
2022-07-30T14:16:46.031Z,21.34
2022-07-30T14:19:23.569Z,21.32
2022-07-30T14:21:55.376Z,21.29
2022-07-30T14:24:23.975Z,21.28
2022-07-30T14:27:09.960Z,21.27
2022-07-30T14:29:38.752Z,21.25
2022-07-30T14:32:07.791Z,21.22
2022-07-30T14:34:36.199Z,21.20
2022-07-30T14:37:05.757Z,21.18
2022-07-30T14:40:03.018Z,21.16
2022-07-30T14:42:31.854Z,21.13
2022-07-30T14:45:00.347Z,21.10
2022-07-30T14:47:28.820Z,21.08
2022-07-30T14:50:00.761Z,21.06
2022-07-30T14:52:29.563Z,21.04
2022-07-30T14:55:03.696Z,21.02
2022-07-30T14:57:32.758Z,21.00
2022-07-30T15:00:01.324Z,20.98
2022-07-30T15:02:29.952Z,20.96
2022-07-30T15:04:59.635Z,20.95
2022-07-30T15:07:32.560Z,20.96
2022-07-30T15:10:02.119Z,20.97
2022-07-30T15:12:30.612Z,20.96
2022-07-30T15:15:02.884Z,20.95
2022-07-30T15:17:32.795Z,20.97
2022-07-30T15:20:01.570Z,20.99
2022-07-30T15:22:30.135Z,21.00
2022-07-30T15:24:58.765Z,21.00
2022-07-30T15:27:34.035Z,21.01
2022-07-30T15:30:05.167Z,21.01
2022-07-30T15:32:33.751Z,21.01
2022-07-30T15:35:02.662Z,21.01
2022-07-30T15:37:31.657Z,21.02
2022-07-30T15:40:00.713Z,21.03
2022-07-30T15:42:31.267Z,21.02
2022-07-30T15:45:19.114Z,21.02
2022-07-30T15:47:52.459Z,21.03
2022-07-30T15:50:21.546Z,21.05
2022-07-30T15:52:50.536Z,21.06
2022-07-30T15:55:20.019Z,21.06
2022-07-30T15:57:49.492Z,21.04
2022-07-30T16:00:18.612Z,21.03
2022-07-30T16:02:47.264Z,21.02
2022-07-30T16:05:27.698Z,21.03
2022-07-30T16:08:20.401Z,21.02
2022-07-30T16:10:49.047Z,21.02
2022-07-30T16:13:18.242Z,21.02
2022-07-30T16:15:47.452Z,21.02
2022-07-30T16:18:16.148Z,21.00
2022-07-30T16:20:44.734Z,20.99
2022-07-30T16:23:15.999Z,20.97
2022-07-30T16:25:49.025Z,20.96
2022-07-30T16:28:25.752Z,20.95
2022-07-30T16:30:56.965Z,20.93
2022-07-30T16:33:25.614Z,20.90
2022-07-30T16:35:54.156Z,20.88
2022-07-30T16:38:24.149Z,20.88
2022-07-30T16:40:52.637Z,20.87
2022-07-30T16:43:22.034Z,20.86
2022-07-30T16:45:50.871Z,20.86
2022-07-30T16:48:19.474Z,20.85
2022-07-30T16:50:48.260Z,20.85
2022-07-30T16:53:16.996Z,20.83
2022-07-30T16:56:02.682Z,20.82
2022-07-30T16:58:59.355Z,20.83
2022-07-30T17:01:36.055Z,20.81
2022-07-30T17:04:06.128Z,20.80
2022-07-30T17:06:35.794Z,20.80
2022-07-30T17:09:09.119Z,20.79
2022-07-30T17:11:47.143Z,20.80
2022-07-30T17:14:24.326Z,20.81
2022-07-30T17:16:52.749Z,20.80
2022-07-30T17:19:22.601Z,20.80
2022-07-30T17:21:51.200Z,20.79
2022-07-30T17:24:20.635Z,20.78
2022-07-30T17:26:49.125Z,20.76
2022-07-30T17:29:17.816Z,20.73
2022-07-30T17:31:47.441Z,20.71
2022-07-30T17:34:21.182Z,20.70
2022-07-30T17:36:54.693Z,20.69
2022-07-30T17:40:26.501Z,20.67
2022-07-30T17:42:15.437Z,20.65
2022-07-30T17:44:44.280Z,20.65
2022-07-30T17:47:17.171Z,20.63
2022-07-30T17:49:47.216Z,20.63
2022-07-30T17:52:15.591Z,20.61
2022-07-30T17:54:44.073Z,20.59
2022-07-30T17:57:17.903Z,20.56
2022-07-30T17:59:47.453Z,20.52
2022-07-30T18:02:17.556Z,20.48
2022-07-30T18:04:56.163Z,20.44
2022-07-30T18:07:25.689Z,20.38
2022-07-30T18:09:54.624Z,20.33
2022-07-30T18:12:23.360Z,20.26
2022-07-30T18:14:52.313Z,20.17
2022-07-30T18:17:20.782Z,20.09
2022-07-30T18:19:49.837Z,20.05
2022-07-30T18:22:29.335Z,20.00
2022-07-30T18:25:00.111Z,19.95
2022-07-30T18:27:29.368Z,19.89
2022-07-30T18:29:59.015Z,19.84
2022-07-30T18:32:27.980Z,19.78
2022-07-30T18:34:56.464Z,19.73
2022-07-30T18:37:25.348Z,19.68
2022-07-30T18:40:12.813Z,19.61
2022-07-30T18:42:41.514Z,19.56
2022-07-30T18:45:13.353Z,19.50
2022-07-30T18:47:48.248Z,19.46
2022-07-30T18:50:38.108Z,19.42
2022-07-30T18:53:15.226Z,19.40
2022-07-30T18:55:44.934Z,19.38
2022-07-30T18:58:15.248Z,19.36
2022-07-30T19:00:43.970Z,19.35
2022-07-30T19:03:17.484Z,19.34
2022-07-30T19:05:49.875Z,19.33
2022-07-30T19:08:18.875Z,19.32
2022-07-30T19:10:48.017Z,19.31
2022-07-30T19:13:19.105Z,19.29
2022-07-30T19:15:47.985Z,19.27
2022-07-30T19:18:16.919Z,19.27
2022-07-30T19:20:46.440Z,19.25
2022-07-30T19:23:16.424Z,19.23
2022-07-30T19:25:45.662Z,19.23
2022-07-30T19:28:16.619Z,19.23
2022-07-30T19:30:45.141Z,19.23
2022-07-30T19:33:15.776Z,19.24
2022-07-30T19:35:45.256Z,19.24
2022-07-30T19:41:02.812Z,19.26
2022-07-30T19:43:33.646Z,19.26
2022-07-30T19:46:02.192Z,19.27
2022-07-30T19:48:32.437Z,19.27
2022-07-30T19:51:01.538Z,19.26
2022-07-30T19:53:31.188Z,19.26
2022-07-30T19:56:02.348Z,19.24
2022-07-30T19:58:32.358Z,19.21
2022-07-30T20:01:01.499Z,19.19
2022-07-30T20:03:31.903Z,19.18
2022-07-30T20:06:01.541Z,19.15
2022-07-30T20:08:29.979Z,19.12
2022-07-30T20:10:58.703Z,19.09
2022-07-30T20:13:44.914Z,19.06
2022-07-30T20:16:16.310Z,19.05
2022-07-30T20:18:46.216Z,19.03
2022-07-30T20:21:16.341Z,19.03
2022-07-30T20:23:45.469Z,19.02
2022-07-30T20:26:15.403Z,19.02
2022-07-30T20:28:47.405Z,18.99
2022-07-30T20:31:21.587Z,18.98
2022-07-30T20:33:50.813Z,18.96
2022-07-30T20:36:21.681Z,18.94
2022-07-30T20:38:50.657Z,18.90
2022-07-30T20:41:19.731Z,18.89
2022-07-30T20:43:52.507Z,18.90
2022-07-30T20:46:23.881Z,18.89
2022-07-30T20:48:53.250Z,18.88
2022-07-30T20:51:21.853Z,18.87
2022-07-30T20:54:02.296Z,18.84
2022-07-30T20:56:31.497Z,18.83
2022-07-30T20:58:59.974Z,18.82
2022-07-30T21:01:30.766Z,18.79
2022-07-30T21:03:59.441Z,18.75
2022-07-30T21:06:28.075Z,18.74
2022-07-30T21:08:56.702Z,18.72
2022-07-30T21:11:25.985Z,18.70
2022-07-30T21:13:55.495Z,18.66
2022-07-30T21:16:26.749Z,18.60
2022-07-30T21:18:59.561Z,18.55
2022-07-30T21:21:41.517Z,18.51
2022-07-30T21:24:14.806Z,18.48
2022-07-30T21:26:43.973Z,18.46
2022-07-30T21:29:13.516Z,18.42
2022-07-30T21:32:01.446Z,18.40
2022-07-30T21:34:40.443Z,18.36
2022-07-30T21:37:15.516Z,18.32
2022-07-30T21:39:44.529Z,18.30
2022-07-30T21:42:13.780Z,18.27
2022-07-30T21:44:42.228Z,18.26
2022-07-30T21:47:10.854Z,18.25
2022-07-30T21:49:40.248Z,18.23
2022-07-30T21:52:11.648Z,18.22
2022-07-30T21:54:48.016Z,18.21
2022-07-30T21:57:23.073Z,18.21
2022-07-30T21:59:52.066Z,18.19
2022-07-30T22:02:21.776Z,18.18
2022-07-30T22:04:50.691Z,18.17
2022-07-30T22:07:19.171Z,18.15
2022-07-30T22:09:50.565Z,18.15
2022-07-30T22:12:19.343Z,18.14
2022-07-30T22:14:49.734Z,18.12
2022-07-30T22:17:23.602Z,18.12
2022-07-30T22:20:11.465Z,18.11
2022-07-30T22:22:40.892Z,18.11
2022-07-30T22:25:10.951Z,18.12
2022-07-30T22:27:56.728Z,18.11
2022-07-30T22:30:27.553Z,18.11
2022-07-30T22:33:06.280Z,18.10
2022-07-30T22:35:35.580Z,18.10
2022-07-30T22:38:05.284Z,18.12
2022-07-30T22:40:34.468Z,18.13
2022-07-30T22:43:07.580Z,18.13
2022-07-30T22:45:47.689Z,18.13
2022-07-30T22:48:19.663Z,18.11
2022-07-30T22:50:52.030Z,18.11
2022-07-30T22:54:11.360Z,18.11
2022-07-30T22:56:15.529Z,18.11
2022-07-30T22:58:44.740Z,18.09
2022-07-30T23:01:17.474Z,18.08
2022-07-30T23:03:46.063Z,18.08
2022-07-30T23:06:16.513Z,18.08
2022-07-30T23:08:44.896Z,18.07
2022-07-30T23:11:13.315Z,18.07
2022-07-30T23:12:14.684Z,19.25
2022-07-30T23:13:43.217Z,18.08
2022-07-30T23:16:11.627Z,18.08
2022-07-30T23:18:40.086Z,18.09
2022-07-30T23:21:09.431Z,18.08
2022-07-30T23:23:38.079Z,18.07
2022-07-30T23:26:07.927Z,18.07
2022-07-30T23:28:36.742Z,18.06
2022-07-30T23:31:05.278Z,18.05
2022-07-30T23:33:34.317Z,18.04
2022-07-30T23:36:05.966Z,18.04
2022-07-30T23:38:34.666Z,18.04
2022-07-30T23:41:04.903Z,18.03
2022-07-30T23:43:34.179Z,18.03
2022-07-30T23:46:03.327Z,18.03
2022-07-30T23:48:32.609Z,18.03
2022-07-30T23:51:01.504Z,18.02
2022-07-30T23:53:29.877Z,18.02
2022-07-30T23:55:58.295Z,18.02
2022-07-30T23:58:26.718Z,18.03
